Ada, West Virginia
Current Conditions -  °F | °C
As of 10:52 PM on Thursday 18 Dec 2014 (Local Time) from KBLF Reporting Station
Broken Clouds Broken Clouds  
Wind Chill: 24°   Ceiling: 7000
Heat Index: 31°   Visibility: 10mi
Dew Point: 22°   Wind: 7mph
Humidity: 69%   Direction: 280°W
Pressure: 30.09"   Gusts: NA
Location:  37.2994°N, 81.226°W
Report Text: KBLF 190352Z AUTO 28006KT 10SM BKN070 M01/M06 A3009 RMK AO2 SLP207 T10061056
Loading
Personal Weather Stations






























Interactive Weather Map New forecast layout! Learn more

10-Day Weather Forecast

Advertisements
Track Severe Weather on mobile